Time;durP1;ratioP1;P1;durP2;ratioP2;P2;SDS_P1;SDS_P2;PMS_P1;PMS_P2;Temp;Humidity;BMP_temperature;BMP_pressure;BME280_temperature;BME280_humidity;BME280_pressure;Samples;Min_cycle;Max_cycle;Signal;HPM_P1;HPM_P2
2023/04/24 00:01:48;;;;;;;3.30;3.00;;;;;;;;;;5055222;28;20433;-80
2023/04/24 00:04:16;;;;;;;3.08;2.78;;;;;;;;;;5052469;28;20413;-80
2023/04/24 00:06:43;;;;;;;3.47;3.00;;;;;;;;;;5058078;28;20434;-80
2023/04/24 00:09:09;;;;;;;3.35;3.05;;;;;;;;;;5058565;28;20411;-80
2023/04/24 00:11:37;;;;;;;3.35;3.08;;;;;;;;;;5056650;28;20894;-80
2023/04/24 00:14:04;;;;;;;4.05;3.60;;;;;;;;;;5057944;28;20422;-80
2023/04/24 00:16:30;;;;;;;3.70;3.40;;;;;;;;;;5058411;28;20980;-80
2023/04/24 00:18:57;;;;;;;3.80;3.10;;;;;;;;;;5057731;28;20425;-80
2023/04/24 00:21:25;;;;;;;3.80;3.40;;;;;;;;;;5058999;28;20430;-80
2023/04/24 00:23:51;;;;;;;4.97;3.40;;;;;;;;;;5063438;28;20415;-80
2023/04/24 00:26:19;;;;;;;3.70;3.40;;;;;;;;;;5062386;28;20754;-80
2023/04/24 00:28:47;;;;;;;3.70;3.40;;;;;;;;;;5057760;28;20471;-80
2023/04/24 00:31:14;;;;;;;4.22;3.58;;;;;;;;;;5054002;28;20421;-80
2023/04/24 00:33:40;;;;;;;3.92;3.50;;;;;;;;;;5057679;28;20429;-80
2023/04/24 00:36:07;;;;;;;3.35;3.05;;;;;;;;;;5055776;28;20417;-80
2023/04/24 00:38:33;;;;;;;4.43;3.85;;;;;;;;;;5053553;28;20829;-80
2023/04/24 00:41:00;;;;;;;3.53;3.22;;;;;;;;;;5058782;28;21044;-80
2023/04/24 00:43:26;;;;;;;3.78;3.47;;;;;;;;;;5063402;28;20407;-80
2023/04/24 00:45:56;;;;;;;3.42;3.13;;;;;;;;;;5059730;28;20420;-80
2023/04/24 00:48:24;;;;;;;2.90;2.70;;;;;;;;;;5055260;28;20433;-80
2023/04/24 00:50:50;;;;;;;3.13;2.80;;;;;;;;;;5059062;28;20421;-80
2023/04/24 00:53:17;;;;;;;3.22;2.97;;;;;;;;;;5061587;28;20418;-80
2023/04/24 00:55:44;;;;;;;3.60;3.30;;;;;;;;;;5051938;28;20436;-80
2023/04/24 00:58:10;;;;;;;3.70;3.40;;;;;;;;;;5057594;28;20429;-80
2023/04/24 01:00:42;;;;;;;4.22;3.92;;;;;;;;;;5057486;28;20414;-80
2023/04/24 01:03:10;;;;;;;3.00;2.70;;;;;;;;;;5065179;28;20416;-80
2023/04/24 01:05:39;;;;;;;3.03;2.80;;;;;;;;;;5065788;28;20408;-80
2023/04/24 01:08:06;;;;;;;2.80;2.60;;;;;;;;;;5064045;28;20413;-80
2023/04/24 01:10:34;;;;;;;2.90;2.50;;;;;;;;;;5058238;28;20528;-80
2023/04/24 01:13:00;;;;;;;2.97;2.78;;;;;;;;;;5041251;28;20439;-80
2023/04/24 01:15:27;;;;;;;3.10;2.88;;;;;;;;;;5063269;28;20482;-80
2023/04/24 01:17:53;;;;;;;3.70;3.10;;;;;;;;;;5060680;28;20813;-80
2023/04/24 01:20:21;;;;;;;3.70;3.40;;;;;;;;;;5056921;28;20416;-81
2023/04/24 01:22:49;;;;;;;3.58;3.38;;;;;;;;;;5059972;28;20425;-80
2023/04/24 01:25:15;;;;;;;3.40;3.10;;;;;;;;;;5059949;28;20413;-80
2023/04/24 01:27:42;;;;;;;3.50;3.30;;;;;;;;;;5057638;28;20416;-80
2023/04/24 01:30:09;;;;;;;3.78;3.47;;;;;;;;;;5045925;28;20420;-80
2023/04/24 01:32:36;;;;;;;3.70;3.40;;;;;;;;;;5061305;28;20769;-80
2023/04/24 01:35:03;;;;;;;4.00;3.70;;;;;;;;;;5055285;28;20416;-80
2023/04/24 01:37:32;;;;;;;3.90;3.60;;;;;;;;;;5058412;28;20459;-79
2023/04/24 01:39:59;;;;;;;4.10;3.80;;;;;;;;;;5061063;28;20948;-80
2023/04/24 01:42:26;;;;;;;4.30;4.00;;;;;;;;;;5066652;28;20514;-80
2023/04/24 01:44:53;;;;;;;4.30;4.00;;;;;;;;;;5058673;28;20412;-80
2023/04/24 01:47:21;;;;;;;4.38;4.00;;;;;;;;;;5061577;28;20405;-79
2023/04/24 01:49:48;;;;;;;4.20;3.80;;;;;;;;;;5054265;28;20410;-79
2023/04/24 01:52:16;;;;;;;4.00;3.70;;;;;;;;;;5057707;28;20427;-80
2023/04/24 01:54:42;;;;;;;5.03;4.00;;;;;;;;;;5052078;28;20485;-80
2023/04/24 01:57:10;;;;;;;3.97;3.63;;;;;;;;;;5054090;28;20522;-80
2023/04/24 01:59:37;;;;;;;4.80;3.83;;;;;;;;;;5061325;28;20405;-80
2023/04/24 02:02:03;;;;;;;4.00;3.60;;;;;;;;;;5072141;28;20449;-80
2023/04/24 02:04:30;;;;;;;4.32;3.92;;;;;;;;;;5052106;28;20405;-80
2023/04/24 02:06:56;;;;;;;4.05;3.75;;;;;;;;;;5050676;28;20409;-80
2023/04/24 02:09:23;;;;;;;4.07;3.78;;;;;;;;;;5059314;28;20924;-80
2023/04/24 02:11:49;;;;;;;4.30;3.90;;;;;;;;;;5063929;28;20423;-80
2023/04/24 02:14:17;;;;;;;3.90;3.50;;;;;;;;;;5059241;28;20767;-79
2023/04/24 02:16:43;;;;;;;4.00;3.60;;;;;;;;;;5061707;28;20433;-80
2023/04/24 02:19:10;;;;;;;3.80;3.50;;;;;;;;;;5061470;28;20421;-80
2023/04/24 02:21:36;;;;;;;4.78;3.50;;;;;;;;;;5051822;28;20415;-80
2023/04/24 02:24:03;;;;;;;4.30;3.40;;;;;;;;;;5059598;28;20437;-80
2023/04/24 02:26:31;;;;;;;4.32;4.03;;;;;;;;;;5053373;28;20417;-80
2023/04/24 02:28:57;;;;;;;4.57;4.22;;;;;;;;;;5056662;28;20413;-80
2023/04/24 02:31:25;;;;;;;4.33;3.90;;;;;;;;;;5055715;28;20420;-80
2023/04/24 02:33:52;;;;;;;4.30;3.80;;;;;;;;;;5053224;28;20487;-80
2023/04/24 02:36:18;;;;;;;4.60;4.30;;;;;;;;;;5047454;28;20421;-80
2023/04/24 02:38:45;;;;;;;4.13;3.83;;;;;;;;;;5058601;28;20433;-80
2023/04/24 02:41:11;;;;;;;4.40;4.10;;;;;;;;;;5056786;28;20421;-80
2023/04/24 02:43:38;;;;;;;4.63;4.13;;;;;;;;;;5060150;28;20411;-80
2023/04/24 02:46:04;;;;;;;4.30;3.90;;;;;;;;;;5061748;28;20416;-80
2023/04/24 02:48:32;;;;;;;4.68;4.00;;;;;;;;;;5053403;28;20413;-80
2023/04/24 02:50:59;;;;;;;4.20;3.80;;;;;;;;;;5055974;28;20417;-80
2023/04/24 02:53:25;;;;;;;4.15;3.85;;;;;;;;;;5054834;28;20953;-80
2023/04/24 02:55:51;;;;;;;4.70;4.20;;;;;;;;;;5059429;28;20421;-78
2023/04/24 02:58:19;;;;;;;4.95;4.55;;;;;;;;;;5068112;28;20510;-81
2023/04/24 03:00:47;;;;;;;5.68;5.18;;;;;;;;;;5059987;28;20456;-79
2023/04/24 03:03:14;;;;;;;6.28;5.78;;;;;;;;;;5061630;28;20413;-79
2023/04/24 03:05:42;;;;;;;6.47;5.90;;;;;;;;;;5058593;28;20418;-79
2023/04/24 03:08:09;;;;;;;7.43;6.82;;;;;;;;;;5040979;28;20460;-78
2023/04/24 03:10:35;;;;;;;8.38;7.68;;;;;;;;;;5055700;28;20785;-80
2023/04/24 03:13:01;;;;;;;8.18;7.47;;;;;;;;;;5055033;28;20415;-79
2023/04/24 03:15:28;;;;;;;9.23;8.40;;;;;;;;;;5051483;28;20413;-79
2023/04/24 03:17:55;;;;;;;8.85;7.97;;;;;;;;;;5056153;28;20922;-78
2023/04/24 03:20:22;;;;;;;8.70;7.90;;;;;;;;;;5059725;28;20421;-78
2023/04/24 03:22:49;;;;;;;8.80;7.90;;;;;;;;;;5056849;28;20417;-78
2023/04/24 03:25:16;;;;;;;8.73;8.00;;;;;;;;;;5058824;28;20413;-80
2023/04/24 03:27:42;;;;;;;9.50;8.55;;;;;;;;;;5053562;28;20485;-80
2023/04/24 03:30:09;;;;;;;9.82;8.93;;;;;;;;;;5050437;28;20766;-80
2023/04/24 03:32:35;;;;;;;10.05;8.95;;;;;;;;;;5060453;28;20436;-80
2023/04/24 03:35:02;;;;;;;8.70;7.90;;;;;;;;;;5058936;28;20410;-80
2023/04/24 03:37:29;;;;;;;9.52;8.63;;;;;;;;;;5050667;28;20819;-80
2023/04/24 03:39:56;;;;;;;8.95;8.05;;;;;;;;;;5053589;28;20432;-80
2023/04/24 03:42:23;;;;;;;8.60;7.90;;;;;;;;;;5060133;28;20439;-79
2023/04/24 03:44:49;;;;;;;9.18;8.38;;;;;;;;;;5058679;28;20417;-78
2023/04/24 03:47:16;;;;;;;8.10;7.43;;;;;;;;;;5054899;28;20409;-79
2023/04/24 03:49:43;;;;;;;8.57;7.82;;;;;;;;;;5055360;28;20413;-80
2023/04/24 03:52:10;;;;;;;8.10;7.40;;;;;;;;;;5054580;28;20417;-79
2023/04/24 03:54:36;;;;;;;8.47;7.63;;;;;;;;;;5055965;28;20428;-79
2023/04/24 03:57:04;;;;;;;8.60;7.80;;;;;;;;;;5056948;28;20415;-80
2023/04/24 03:59:31;;;;;;;8.15;7.30;;;;;;;;;;5057015;28;20401;-77
2023/04/24 04:01:57;;;;;;;8.30;7.60;;;;;;;;;;5061923;28;20416;-79
2023/04/24 04:04:23;;;;;;;7.87;7.13;;;;;;;;;;5057750;28;20440;-78
2023/04/24 04:06:50;;;;;;;7.70;7.00;;;;;;;;;;5057638;28;20422;-80
2023/04/24 04:09:17;;;;;;;8.50;7.70;;;;;;;;;;5061877;28;20539;-80
2023/04/24 04:11:43;;;;;;;8.80;8.00;;;;;;;;;;5060282;28;20410;-79
2023/04/24 04:14:13;;;;;;;8.82;7.80;;;;;;;;;;5061504;28;20403;-79
2023/04/24 04:16:40;;;;;;;9.20;8.30;;;;;;;;;;5054160;28;20825;-79
2023/04/24 04:19:07;;;;;;;9.38;8.10;;;;;;;;;;5061583;28;20503;-79
2023/04/24 04:21:33;;;;;;;9.10;8.20;;;;;;;;;;5056283;28;20929;-79
2023/04/24 04:23:59;;;;;;;9.67;8.70;;;;;;;;;;5066116;28;20416;-79
2023/04/24 04:26:27;;;;;;;10.18;9.18;;;;;;;;;;5055148;28;20420;-79
2023/04/24 04:28:53;;;;;;;9.85;8.85;;;;;;;;;;5056617;28;20498;-78
2023/04/24 04:31:21;;;;;;;9.57;8.57;;;;;;;;;;5050749;28;20407;-79
2023/04/24 04:33:48;;;;;;;9.57;8.57;;;;;;;;;;5061421;28;20831;-78
2023/04/24 04:36:14;;;;;;;10.20;9.20;;;;;;;;;;5057213;28;20484;-78
2023/04/24 04:38:42;;;;;;;9.50;8.60;;;;;;;;;;5058316;28;20939;-79
2023/04/24 04:41:09;;;;;;;9.93;9.00;;;;;;;;;;5057869;28;20447;-78
2023/04/24 04:43:36;;;;;;;9.43;8.43;;;;;;;;;;5059898;28;20425;-78
2023/04/24 04:46:03;;;;;;;9.68;8.77;;;;;;;;;;5063061;28;20425;-78
2023/04/24 04:48:32;;;;;;;9.10;8.20;;;;;;;;;;5065942;28;20415;-80
2023/04/24 04:50:59;;;;;;;8.90;8.00;;;;;;;;;;5057130;28;20428;-80
2023/04/24 04:53:25;;;;;;;9.70;8.70;;;;;;;;;;5056621;28;20516;-80
2023/04/24 04:55:52;;;;;;;9.20;8.40;;;;;;;;;;5063643;28;20420;-78
2023/04/24 04:58:18;;;;;;;8.45;7.65;;;;;;;;;;5064564;28;20435;-80
2023/04/24 05:00:44;;;;;;;9.27;8.27;;;;;;;;;;5054534;28;20422;-80
2023/04/24 05:03:11;;;;;;;7.88;7.07;;;;;;;;;;5059311;28;20417;-80
2023/04/24 05:05:40;;;;;;;10.27;8.35;;;;;;;;;;5059789;28;20895;-80
2023/04/24 05:08:07;;;;;;;8.13;7.32;;;;;;;;;;5059705;28;20911;-80
2023/04/24 05:10:33;;;;;;;9.45;8.13;;;;;;;;;;5057045;28;20413;-78
2023/04/24 05:13:00;;;;;;;7.55;6.85;;;;;;;;;;5056568;28;20496;-78
2023/04/24 05:15:27;;;;;;;8.60;7.53;;;;;;;;;;5057356;28;20507;-78
2023/04/24 05:17:53;;;;;;;7.95;7.18;;;;;;;;;;5048137;28;20429;-79
2023/04/24 05:20:20;;;;;;;8.13;7.13;;;;;;;;;;5050580;28;20837;-80
2023/04/24 05:22:47;;;;;;;8.07;7.28;;;;;;;;;;5063521;28;20436;-79
2023/04/24 05:25:14;;;;;;;7.47;6.78;;;;;;;;;;5061298;28;20413;-78
2023/04/24 05:27:41;;;;;;;8.60;7.22;;;;;;;;;;5057962;28;20426;-79
2023/04/24 05:30:08;;;;;;;8.55;6.68;;;;;;;;;;5059951;28;20418;-78
2023/04/24 05:32:34;;;;;;;7.35;6.65;;;;;;;;;;5059896;28;20778;-79
2023/04/24 05:35:01;;;;;;;8.27;7.30;;;;;;;;;;5058070;28;20444;-78
2023/04/24 05:37:27;;;;;;;9.13;7.53;;;;;;;;;;5058272;28;20496;-78
2023/04/24 05:39:55;;;;;;;7.50;6.80;;;;;;;;;;5055473;28;20417;-78
2023/04/24 05:42:21;;;;;;;8.20;6.40;;;;;;;;;;5060800;28;20408;-81
2023/04/24 05:44:48;;;;;;;7.60;6.80;;;;;;;;;;5054933;28;20411;-78
2023/04/24 05:47:15;;;;;;;8.30;7.40;;;;;;;;;;5052621;28;20456;-78
2023/04/24 05:49:41;;;;;;;8.30;7.10;;;;;;;;;;5046542;28;20467;-79
2023/04/24 05:52:08;;;;;;;8.00;6.90;;;;;;;;;;5056634;28;20504;-78
2023/04/24 05:54:35;;;;;;;8.50;7.13;;;;;;;;;;5062624;28;20417;-81
2023/04/24 05:57:07;;;;;;;8.52;7.63;;;;;;;;;;5059469;28;20448;-78
2023/04/24 05:59:33;;;;;;;8.15;7.28;;;;;;;;;;5054212;28;20434;-80
2023/04/24 06:02:00;;;;;;;9.10;8.07;;;;;;;;;;5064857;28;20900;-80
2023/04/24 06:04:28;;;;;;;9.55;6.97;;;;;;;;;;5061128;28;20923;-80
2023/04/24 06:06:55;;;;;;;9.30;8.30;;;;;;;;;;5049346;28;20433;-80
2023/04/24 06:09:22;;;;;;;9.63;8.00;;;;;;;;;;5056709;28;20430;-79
2023/04/24 06:11:48;;;;;;;11.68;7.80;;;;;;;;;;5057337;28;20418;-80
2023/04/24 06:14:16;;;;;;;10.30;8.02;;;;;;;;;;5054871;28;20423;-80
2023/04/24 06:16:43;;;;;;;10.93;7.80;;;;;;;;;;5058960;28;20413;-78
2023/04/24 06:19:09;;;;;;;9.57;8.07;;;;;;;;;;5061003;28;20427;-78
2023/04/24 06:21:36;;;;;;;9.43;7.85;;;;;;;;;;5056552;28;20435;-79
2023/04/24 06:24:03;;;;;;;10.10;7.20;;;;;;;;;;5060071;28;20413;-79
2023/04/24 06:26:29;;;;;;;10.68;7.97;;;;;;;;;;5057219;28;20420;-79
2023/04/24 06:28:56;;;;;;;9.00;7.65;;;;;;;;;;5055772;28;20409;-79
2023/04/24 06:31:24;;;;;;;8.40;7.43;;;;;;;;;;5052652;28;20919;-80
2023/04/24 06:33:50;;;;;;;9.35;7.70;;;;;;;;;;5059221;28;20432;-79
2023/04/24 06:36:17;;;;;;;8.77;7.35;;;;;;;;;;5058232;28;20893;-79
2023/04/24 06:38:43;;;;;;;9.50;7.80;;;;;;;;;;5062643;28;20423;-79
2023/04/24 06:41:10;;;;;;;10.10;8.10;;;;;;;;;;5063571;28;20418;-78
2023/04/24 06:43:37;;;;;;;9.83;8.03;;;;;;;;;;5058186;28;20430;-78
2023/04/24 06:46:04;;;;;;;10.25;8.35;;;;;;;;;;5054902;28;20425;-79
2023/04/24 06:48:31;;;;;;;12.10;9.15;;;;;;;;;;5058628;28;20420;-78
2023/04/24 06:50:58;;;;;;;10.27;9.07;;;;;;;;;;5050717;28;20939;-78
2023/04/24 06:53:25;;;;;;;11.63;9.43;;;;;;;;;;5054341;28;20409;-78
2023/04/24 06:55:51;;;;;;;11.47;9.20;;;;;;;;;;5060845;28;20471;-79
2023/04/24 06:58:18;;;;;;;10.73;9.40;;;;;;;;;;5060503;28;20436;-79
2023/04/24 07:00:45;;;;;;;12.00;9.63;;;;;;;;;;5060221;28;20414;-79
2023/04/24 07:03:12;;;;;;;12.05;9.90;;;;;;;;;;5039468;28;20427;-79
2023/04/24 07:05:39;;;;;;;12.88;10.77;;;;;;;;;;5056139;28;20413;-80
2023/04/24 07:08:06;;;;;;;13.50;10.60;;;;;;;;;;5058057;28;20847;-78
2023/04/24 07:10:33;;;;;;;16.17;10.65;;;;;;;;;;5065424;28;20407;-80
2023/04/24 07:13:00;;;;;;;12.45;10.38;;;;;;;;;;5057649;28;20432;-80
2023/04/24 07:15:26;;;;;;;15.37;11.37;;;;;;;;;;5052473;28;20488;-80
2023/04/24 07:17:53;;;;;;;12.52;10.60;;;;;;;;;;5056783;28;20419;-80
2023/04/24 07:20:20;;;;;;;12.45;10.75;;;;;;;;;;5060803;28;20918;-80
2023/04/24 07:22:48;;;;;;;12.52;10.90;;;;;;;;;;5058918;28;20440;-80
2023/04/24 07:25:15;;;;;;;14.50;10.90;;;;;;;;;;5065551;28;20409;-80
2023/04/24 07:27:42;;;;;;;12.77;11.40;;;;;;;;;;5058776;28;20429;-77
2023/04/24 07:30:08;;;;;;;12.93;10.45;;;;;;;;;;5060506;28;20839;-79
2023/04/24 07:32:35;;;;;;;13.77;11.30;;;;;;;;;;5054966;28;20417;-79
2023/04/24 07:35:02;;;;;;;12.40;11.20;;;;;;;;;;5064126;28;20416;-78
2023/04/24 07:37:29;;;;;;;14.38;11.70;;;;;;;;;;5060009;28;20428;-79
2023/04/24 07:39:57;;;;;;;12.35;10.50;;;;;;;;;;5062241;28;20872;-78
2023/04/24 07:42:23;;;;;;;15.57;10.90;;;;;;;;;;5063917;28;20413;-77
2023/04/24 07:44:51;;;;;;;13.18;10.82;;;;;;;;;;5056916;28;20405;-78
2023/04/24 07:47:17;;;;;;;13.85;11.32;;;;;;;;;;5053096;28;20833;-79
2023/04/24 07:49:45;;;;;;;12.68;10.30;;;;;;;;;;5050864;28;21022;-78
2023/04/24 07:52:11;;;;;;;13.40;11.20;;;;;;;;;;5065356;28;20431;-78
2023/04/24 07:54:38;;;;;;;13.50;11.30;;;;;;;;;;5051688;28;20413;-79
2023/04/24 07:57:06;;;;;;;11.52;10.32;;;;;;;;;;5056649;28;20486;-80
2023/04/24 07:59:33;;;;;;;12.18;10.25;;;;;;;;;;5056301;28;20417;-79
2023/04/24 08:02:01;;;;;;;10.70;9.60;;;;;;;;;;5062845;28;20908;-79
2023/04/24 08:04:30;;;;;;;11.00;9.90;;;;;;;;;;5065968;28;20432;-79
2023/04/24 08:06:56;;;;;;;13.00;10.50;;;;;;;;;;5065976;28;20752;-78
2023/04/24 08:09:23;;;;;;;13.65;10.30;;;;;;;;;;5059877;28;20774;-79
2023/04/24 08:11:49;;;;;;;10.18;9.10;;;;;;;;;;5055264;28;20484;-78
2023/04/24 08:14:17;;;;;;;11.43;8.93;;;;;;;;;;5062335;28;20454;-78
2023/04/24 08:16:43;;;;;;;11.40;9.05;;;;;;;;;;5060235;28;20452;-78
2023/04/24 08:19:10;;;;;;;10.50;9.50;;;;;;;;;;5061452;28;20427;-79
2023/04/24 08:21:37;;;;;;;9.20;8.20;;;;;;;;;;5060433;28;20845;-78
2023/04/24 08:24:07;;;;;;;10.30;9.02;;;;;;;;;;5060066;28;20421;-78
2023/04/24 08:26:33;;;;;;;10.63;9.25;;;;;;;;;;5055544;28;20787;-78
2023/04/24 08:29:00;;;;;;;12.30;10.20;;;;;;;;;;5065866;28;20417;-78
2023/04/24 08:31:28;;;;;;;14.20;10.10;;;;;;;;;;5062071;28;20417;-78
2023/04/24 08:33:54;;;;;;;11.70;9.20;;;;;;;;;;5061767;28;20405;-79
2023/04/24 08:36:20;;;;;;;11.27;9.90;;;;;;;;;;5056929;28;20425;-78
2023/04/24 08:38:48;;;;;;;10.95;9.48;;;;;;;;;;5061467;28;20444;-79
2023/04/24 08:41:15;;;;;;;10.95;9.07;;;;;;;;;;5058185;28;20417;-78
2023/04/24 08:43:43;;;;;;;11.63;9.45;;;;;;;;;;5053832;28;20421;-79
2023/04/24 08:46:10;;;;;;;13.90;10.50;;;;;;;;;;5067573;28;20415;-78
2023/04/24 08:48:38;;;;;;;12.48;10.10;;;;;;;;;;5058512;28;20470;-78
2023/04/24 08:51:06;;;;;;;12.70;10.00;;;;;;;;;;5058169;28;20794;-81
2023/04/24 08:53:33;;;;;;;13.57;10.65;;;;;;;;;;5055883;28;20412;-80
2023/04/24 08:56:01;;;;;;;12.48;10.20;;;;;;;;;;5059608;28;20416;-80
2023/04/24 08:58:28;;;;;;;12.63;11.20;;;;;;;;;;5063416;28;20507;-80
2023/04/24 09:00:55;;;;;;;12.57;10.75;;;;;;;;;;5060217;28;20435;-80
2023/04/24 09:03:22;;;;;;;12.27;10.25;;;;;;;;;;5054671;28;20420;-81
2023/04/24 09:05:50;;;;;;;14.48;10.48;;;;;;;;;;5056530;28;20410;-81
2023/04/24 09:08:18;;;;;;;12.80;10.20;;;;;;;;;;5054836;28;20437;-80
2023/04/24 09:10:45;;;;;;;10.70;9.60;;;;;;;;;;5057742;28;20413;-81
2023/04/24 09:13:11;;;;;;;12.95;9.95;;;;;;;;;;5058476;28;20413;-80
2023/04/24 09:15:38;;;;;;;13.90;9.57;;;;;;;;;;5057376;28;20417;-80
2023/04/24 09:18:05;;;;;;;16.13;11.00;;;;;;;;;;5049625;28;20429;-78
2023/04/24 09:20:32;;;;;;;10.90;9.55;;;;;;;;;;5040527;28;20421;-80
2023/04/24 09:22:59;;;;;;;11.90;10.23;;;;;;;;;;5058059;28;20853;-80
2023/04/24 09:25:31;;;;;;;10.93;9.80;;;;;;;;;;5052580;28;20506;-80
2023/04/24 09:28:02;;;;;;;13.18;10.23;;;;;;;;;;5059626;28;20520;-80
2023/04/24 09:30:30;;;;;;;12.63;10.10;;;;;;;;;;5056948;28;20895;-80
2023/04/24 09:33:11;;;;;;;11.75;10.55;;;;;;;;;;5061274;28;20436;-79
2023/04/24 09:35:37;;;;;;;12.38;10.52;;;;;;;;;;5051282;28;20946;-78
2023/04/24 09:38:05;;;;;;;12.80;11.30;;;;;;;;;;5057379;28;20422;-80
2023/04/24 09:40:35;;;;;;;15.82;11.90;;;;;;;;;;5061837;28;20998;-80
2023/04/24 09:43:02;;;;;;;14.00;12.00;;;;;;;;;;5063041;28;20421;-80
2023/04/24 09:45:29;;;;;;;13.68;12.27;;;;;;;;;;5055049;28;20415;-80
2023/04/24 09:47:56;;;;;;;14.65;12.50;;;;;;;;;;5054095;28;20411;-80
2023/04/24 09:50:24;;;;;;;13.68;12.15;;;;;;;;;;5062059;28;20480;-81
2023/04/24 09:52:57;;;;;;;15.60;12.02;;;;;;;;;;5055079;28;20483;-79
2023/04/24 09:55:26;;;;;;;15.93;12.90;;;;;;;;;;5065343;28;20509;-80
2023/04/24 09:57:54;;;;;;;16.55;12.85;;;;;;;;;;5047698;28;20850;-79
2023/04/24 10:00:23;;;;;;;15.57;10.50;;;;;;;;;;5055740;28;21037;-80
2023/04/24 10:03:00;;;;;;;15.63;11.60;;;;;;;;;;5053800;28;20415;-78
2023/04/24 10:05:28;;;;;;;11.57;10.38;;;;;;;;;;5044934;28;20413;-79
2023/04/24 10:07:57;;;;;;;11.13;10.03;;;;;;;;;;5055470;28;20414;-80
2023/04/24 10:10:25;;;;;;;11.45;9.73;;;;;;;;;;5053630;28;20420;-80
2023/04/24 10:12:52;;;;;;;12.13;8.90;;;;;;;;;;5043116;28;20437;-80
2023/04/24 10:15:21;;;;;;;11.90;9.57;;;;;;;;;;5053446;28;20413;-80
2023/04/24 10:17:52;;;;;;;11.50;9.70;;;;;;;;;;5058253;28;20422;-80
2023/04/24 10:20:18;;;;;;;12.93;10.52;;;;;;;;;;5058631;28;20445;-79
2023/04/24 10:22:47;;;;;;;12.07;10.88;;;;;;;;;;5057113;28;20836;-78
2023/04/24 10:25:14;;;;;;;13.10;11.80;;;;;;;;;;5054471;28;20419;-79
2023/04/24 10:27:42;;;;;;;14.57;12.55;;;;;;;;;;5074064;28;20479;-78
2023/04/24 10:30:09;;;;;;;16.00;12.93;;;;;;;;;;5051848;28;20417;-80
2023/04/24 10:32:35;;;;;;;16.75;14.00;;;;;;;;;;5052857;28;20417;-80
2023/04/24 10:35:03;;;;;;;17.35;14.90;;;;;;;;;;5056775;28;20420;-79
2023/04/24 10:37:35;;;;;;;16.90;15.10;;;;;;;;;;5059896;28;20432;-80
2023/04/24 10:40:03;;;;;;;15.02;13.38;;;;;;;;;;5055397;28;21033;-80
2023/04/24 10:42:30;;;;;;;14.75;11.63;;;;;;;;;;5059203;28;20921;-80
2023/04/24 10:44:58;;;;;;;12.80;11.50;;;;;;;;;;5057422;28;20903;-79
2023/04/24 10:47:25;;;;;;;13.13;11.55;;;;;;;;;;5058946;28;20413;-81
2023/04/24 10:49:51;;;;;;;13.48;11.75;;;;;;;;;;5054153;28;20420;-78
2023/04/24 10:52:18;;;;;;;15.55;13.27;;;;;;;;;;5053041;28;20417;-78
2023/04/24 10:54:45;;;;;;;14.50;13.00;;;;;;;;;;5055685;28;20417;-78
2023/04/24 10:57:29;;;;;;;15.87;12.60;;;;;;;;;;5063180;28;20411;-80
2023/04/24 11:00:11;;;;;;;15.45;13.05;;;;;;;;;;5058170;28;20434;-80
2023/04/24 11:02:39;;;;;;;17.13;14.05;;;;;;;;;;5058440;28;20543;-80
2023/04/24 11:05:06;;;;;;;17.35;14.50;;;;;;;;;;5060204;28;20421;-80
2023/04/24 11:08:00;;;;;;;16.27;14.35;;;;;;;;;;5054451;28;20469;-80
2023/04/24 11:10:27;;;;;;;16.08;14.38;;;;;;;;;;5062641;28;20412;-79
2023/04/24 11:12:53;;;;;;;16.27;14.57;;;;;;;;;;5049806;28;20415;-81
2023/04/24 11:15:20;;;;;;;16.83;15.02;;;;;;;;;;5047681;28;20779;-79
2023/04/24 11:17:47;;;;;;;20.03;15.37;;;;;;;;;;5055914;28;20790;-80
2023/04/24 11:20:18;;;;;;;18.25;15.30;;;;;;;;;;5063386;28;20442;-80
2023/04/24 11:22:45;;;;;;;16.45;14.75;;;;;;;;;;5046590;28;20905;-78
2023/04/24 11:25:11;;;;;;;16.88;15.02;;;;;;;;;;5062845;28;20423;-78
2023/04/24 11:27:39;;;;;;;16.27;14.57;;;;;;;;;;5059951;28;20836;-80
2023/04/24 11:30:07;;;;;;;17.33;15.20;;;;;;;;;;5056486;28;20466;-80
2023/04/24 11:32:35;;;;;;;19.45;15.90;;;;;;;;;;5050526;28;20423;-79
2023/04/24 11:35:05;;;;;;;19.67;17.05;;;;;;;;;;5055413;28;20417;-78
2023/04/24 11:37:34;;;;;;;19.00;16.65;;;;;;;;;;5060475;28;20415;-78
2023/04/24 11:40:02;;;;;;;19.27;17.38;;;;;;;;;;5058638;28;20508;-79
2023/04/24 11:42:28;;;;;;;19.48;17.40;;;;;;;;;;5051908;28;20409;-80
2023/04/24 11:44:56;;;;;;;21.02;17.10;;;;;;;;;;5057539;28;20424;-81
2023/04/24 11:47:33;;;;;;;17.77;15.98;;;;;;;;;;5064289;28;20442;-80
2023/04/24 11:50:00;;;;;;;16.33;14.52;;;;;;;;;;5066268;28;20465;-80
2023/04/24 11:52:28;;;;;;;16.00;13.80;;;;;;;;;;5053000;28;20420;-80
2023/04/24 11:54:56;;;;;;;13.48;11.55;;;;;;;;;;5058012;28;20418;-83
2023/04/24 11:57:23;;;;;;;11.73;9.88;;;;;;;;;;5060220;28;20417;-80
2023/04/24 11:59:50;;;;;;;9.13;8.05;;;;;;;;;;5046441;28;20444;-79
2023/04/24 12:02:22;;;;;;;7.00;6.30;;;;;;;;;;5058057;28;20423;-79
2023/04/24 12:04:49;;;;;;;7.68;5.90;;;;;;;;;;5053001;28;20459;-79
2023/04/24 12:07:15;;;;;;;7.05;4.90;;;;;;;;;;5075989;28;20413;-79
2023/04/24 12:09:45;;;;;;;7.77;5.90;;;;;;;;;;5063172;28;20914;-79
2023/04/24 12:12:11;;;;;;;6.50;5.03;;;;;;;;;;5056758;28;20508;-79
2023/04/24 12:14:59;;;;;;;7.40;5.00;;;;;;;;;;5060640;28;20422;-79
2023/04/24 12:17:27;;;;;;;6.53;4.95;;;;;;;;;;5056433;28;20494;-79
2023/04/24 12:19:58;;;;;;;6.60;5.05;;;;;;;;;;5060176;28;20409;-79
2023/04/24 12:22:24;;;;;;;7.90;5.10;;;;;;;;;;5063076;28;20466;-79
2023/04/24 12:25:03;;;;;;;5.18;4.40;;;;;;;;;;5057213;28;20412;-79
2023/04/24 12:27:31;;;;;;;7.13;4.80;;;;;;;;;;5052287;28;20405;-79
2023/04/24 12:29:57;;;;;;;6.72;4.70;;;;;;;;;;5053747;28;20413;-79
2023/04/24 12:32:25;;;;;;;5.30;4.57;;;;;;;;;;5061765;28;20436;-79
2023/04/24 12:34:51;;;;;;;5.40;4.90;;;;;;;;;;5055675;28;20480;-79
2023/04/24 12:37:18;;;;;;;8.77;5.78;;;;;;;;;;5061151;28;20482;-79
2023/04/24 12:39:58;;;;;;;7.90;6.50;;;;;;;;;;5060357;28;20417;-79
2023/04/24 12:42:28;;;;;;;7.15;5.22;;;;;;;;;;5057332;28;20414;-79
2023/04/24 12:44:57;;;;;;;5.85;5.00;;;;;;;;;;5061413;28;20785;-79
2023/04/24 12:47:23;;;;;;;6.95;5.55;;;;;;;;;;5057260;28;20425;-79
2023/04/24 12:49:52;;;;;;;5.20;4.70;;;;;;;;;;5055727;28;20415;-79
2023/04/24 12:52:19;;;;;;;4.88;4.35;;;;;;;;;;5054839;28;20421;-79
2023/04/24 12:54:46;;;;;;;5.60;4.10;;;;;;;;;;5060827;28;20410;-79
2023/04/24 12:57:12;;;;;;;5.07;4.07;;;;;;;;;;5059783;28;20435;-79
2023/04/24 12:59:41;;;;;;;9.50;6.97;;;;;;;;;;5058648;28;20464;-79
2023/04/24 13:02:08;;;;;;;11.80;9.98;;;;;;;;;;5062398;28;20415;-79
2023/04/24 13:04:35;;;;;;;14.98;9.52;;;;;;;;;;5057888;28;20473;-79
2023/04/24 13:07:01;;;;;;;14.23;11.18;;;;;;;;;;5062015;28;20413;-79
2023/04/24 13:09:27;;;;;;;18.08;12.20;;;;;;;;;;5059285;28;20795;-79
2023/04/24 13:11:55;;;;;;;16.80;13.00;;;;;;;;;;5063536;28;20403;-80
2023/04/24 13:14:21;;;;;;;18.98;13.48;;;;;;;;;;5057676;28;20496;-80
2023/04/24 13:16:49;;;;;;;17.70;14.05;;;;;;;;;;5060974;28;20899;-80
2023/04/24 13:19:15;;;;;;;18.77;13.60;;;;;;;;;;5058091;28;20436;-81
2023/04/24 13:21:42;;;;;;;16.90;12.65;;;;;;;;;;5061436;28;20940;-80
2023/04/24 13:24:08;;;;;;;18.07;12.70;;;;;;;;;;5062976;28;20414;-80
2023/04/24 13:26:36;;;;;;;16.02;11.20;;;;;;;;;;5060265;28;20413;-80
2023/04/24 13:29:03;;;;;;;18.23;11.52;;;;;;;;;;5064879;28;20407;-80
2023/04/24 13:31:32;;;;;;;14.77;9.55;;;;;;;;;;5052593;28;20403;-80
2023/04/24 13:34:00;;;;;;;14.80;10.40;;;;;;;;;;5054777;28;20802;-80
2023/04/24 13:36:26;;;;;;;14.43;10.10;;;;;;;;;;5058190;28;20421;-81
2023/04/24 13:38:53;;;;;;;13.65;9.38;;;;;;;;;;5057773;28;20409;-80
2023/04/24 13:41:19;;;;;;;16.07;9.80;;;;;;;;;;5058963;28;20491;-78
2023/04/24 13:43:45;;;;;;;13.48;8.95;;;;;;;;;;5058837;28;20433;-78
2023/04/24 13:46:12;;;;;;;13.23;8.80;;;;;;;;;;5057224;28;20428;-79
2023/04/24 13:48:38;;;;;;;10.88;9.43;;;;;;;;;;5053586;28;20420;-79
2023/04/24 13:51:06;;;;;;;10.87;8.37;;;;;;;;;;5049540;28;20417;-79
2023/04/24 13:53:35;;;;;;;15.77;9.95;;;;;;;;;;5053848;28;20423;-79
2023/04/24 13:56:02;;;;;;;14.63;9.55;;;;;;;;;;5063444;28;20506;-79
2023/04/24 13:58:29;;;;;;;16.02;10.02;;;;;;;;;;5054201;28;20443;-79
2023/04/24 14:00:56;;;;;;;15.65;10.20;;;;;;;;;;5053535;28;20425;-79
2023/04/24 14:03:23;;;;;;;16.38;11.00;;;;;;;;;;5055744;28;20420;-78
2023/04/24 14:05:49;;;;;;;18.33;10.80;;;;;;;;;;5062002;28;20449;-79
2023/04/24 14:08:17;;;;;;;17.17;10.07;;;;;;;;;;5065102;28;20978;-79
2023/04/24 14:10:44;;;;;;;14.80;9.75;;;;;;;;;;5057313;28;20786;-79
2023/04/24 14:13:10;;;;;;;18.15;9.60;;;;;;;;;;5060571;28;20895;-79
2023/04/24 14:15:37;;;;;;;12.75;9.00;;;;;;;;;;5053028;28;20425;-79
2023/04/24 14:18:04;;;;;;;14.32;9.15;;;;;;;;;;5057177;28;20417;-78
2023/04/24 14:20:30;;;;;;;15.65;9.02;;;;;;;;;;5057002;28;20936;-78
2023/04/24 14:22:58;;;;;;;14.02;8.85;;;;;;;;;;5054348;28;20414;-77
2023/04/24 14:25:27;;;;;;;12.77;8.70;;;;;;;;;;5060502;28;20440;-80
2023/04/24 14:27:54;;;;;;;13.00;8.35;;;;;;;;;;5042516;28;20415;-80
2023/04/24 14:30:20;;;;;;;13.52;8.80;;;;;;;;;;5057794;28;20415;-80
2023/04/24 14:32:47;;;;;;;13.25;9.52;;;;;;;;;;5063688;28;20425;-80
2023/04/24 14:35:14;;;;;;;15.93;9.18;;;;;;;;;;5052288;28;20421;-80